createdAt,value
2023-03-13T00:00:22.305Z,16.91
2023-03-13T00:01:22.765Z,16.93
2023-03-13T00:02:21.610Z,16.95
2023-03-13T00:03:21.445Z,16.90
2023-03-13T00:04:21.266Z,16.96
2023-03-13T00:05:21.682Z,16.98
2023-03-13T00:06:21.856Z,17.02
2023-03-13T00:07:21.045Z,16.97
2023-03-13T00:08:21.293Z,16.89
2023-03-13T00:09:21.550Z,16.92
2023-03-13T00:10:22.480Z,16.94
2023-03-13T00:11:19.929Z,16.95
2023-03-13T00:13:21.252Z,16.82
2023-03-13T00:14:21.475Z,16.75
2023-03-13T00:16:22.551Z,16.83
2023-03-13T00:17:22.124Z,16.85
2023-03-13T00:18:21.570Z,16.89
2023-03-13T00:19:21.419Z,16.89
2023-03-13T00:20:21.977Z,16.82
2023-03-13T00:21:21.270Z,16.88
2023-03-13T00:22:21.679Z,16.85
2023-03-13T00:23:22.303Z,16.82
2023-03-13T00:24:21.562Z,16.95
2023-03-13T00:25:22.399Z,16.96
2023-03-13T00:26:21.827Z,16.94
2023-03-13T00:27:21.396Z,16.95
2023-03-13T00:28:21.525Z,16.97
2023-03-13T00:29:21.978Z,16.96
2023-03-13T00:30:21.704Z,16.93
2023-03-13T00:31:21.515Z,16.92
2023-03-13T00:32:21.414Z,16.90
2023-03-13T00:33:21.503Z,16.98
2023-03-13T00:34:21.655Z,17
2023-03-13T00:35:22.112Z,16.99
2023-03-13T00:36:21.308Z,16.87
2023-03-13T00:37:21.465Z,16.90
2023-03-13T00:38:22.048Z,16.87
2023-03-13T00:39:21.453Z,16.92
2023-03-13T00:40:21.881Z,16.95
2023-03-13T00:41:21.370Z,17.02
2023-03-13T00:42:21.937Z,17.05
2023-03-13T00:43:21.517Z,17.04
2023-03-13T00:44:21.747Z,17.07
2023-03-13T00:45:21.719Z,17.08
2023-03-13T00:46:21.662Z,17.04
2023-03-13T00:47:21.512Z,17.06
2023-03-13T00:48:21.586Z,17.03
2023-03-13T00:49:21.908Z,16.96
2023-03-13T00:50:21.578Z,17.05
2023-03-13T00:51:21.835Z,17.01
2023-03-13T00:52:21.234Z,17.03
2023-03-13T00:53:21.383Z,17.02
2023-03-13T00:54:21.578Z,17.09
2023-03-13T00:55:21.662Z,17.10
2023-03-13T00:56:22.108Z,17.15
2023-03-13T00:57:21.287Z,17.12
2023-03-13T00:58:21.635Z,17.11
2023-03-13T00:59:21.654Z,17.17
2023-03-13T01:00:22.368Z,17.20
2023-03-13T01:01:24.941Z,17.15
2023-03-13T01:03:22.184Z,17.05
2023-03-13T01:04:21.995Z,17.08
2023-03-13T01:05:21.869Z,17.06
2023-03-13T01:06:21.428Z,17.10
2023-03-13T01:07:21.980Z,17.12
2023-03-13T01:08:21.430Z,17.15
2023-03-13T01:09:21.495Z,17.18
2023-03-13T01:10:21.760Z,17.19
2023-03-13T01:11:21.607Z,17.13
2023-03-13T01:12:21.937Z,17.19
2023-03-13T01:13:22.081Z,17.17
2023-03-13T01:14:21.350Z,17.18
2023-03-13T01:15:22.077Z,17.16
2023-03-13T01:16:21.842Z,17.23
2023-03-13T01:17:21.584Z,17.28
2023-03-13T01:18:21.685Z,17.18
2023-03-13T01:19:21.702Z,17.18
2023-03-13T01:20:21.830Z,17.22
2023-03-13T01:21:21.851Z,17.17
2023-03-13T01:22:21.948Z,17.11
2023-03-13T01:23:21.335Z,17.14
2023-03-13T01:24:21.386Z,17.12
2023-03-13T01:25:21.782Z,17.18
2023-03-13T01:26:21.706Z,17.17
2023-03-13T01:27:22.050Z,17.15
2023-03-13T01:28:21.458Z,17.21
2023-03-13T01:29:21.463Z,17.16
2023-03-13T01:30:22.266Z,17.19
2023-03-13T01:31:22.029Z,17.17
2023-03-13T01:32:21.749Z,17.14
2023-03-13T01:33:21.745Z,17.12
2023-03-13T01:34:22.018Z,17.05
2023-03-13T01:35:21.206Z,17.05
2023-03-13T01:36:21.795Z,17.18
2023-03-13T01:37:22.038Z,17.14
2023-03-13T01:38:21.161Z,17.11
2023-03-13T01:39:21.778Z,17.11
2023-03-13T01:40:21.349Z,17.12
2023-03-13T01:41:21.521Z,17.14
2023-03-13T01:42:26.485Z,17.12
2023-03-13T01:43:26.914Z,17.06
2023-03-13T01:44:26.770Z,17.10
2023-03-13T01:45:21.587Z,17.09
2023-03-13T01:46:26.726Z,17.17
2023-03-13T01:47:21.971Z,17.20
2023-03-13T01:48:21.130Z,17.12
2023-03-13T01:49:21.196Z,17.06
2023-03-13T01:50:21.571Z,17.16
2023-03-13T01:51:21.678Z,17.12
2023-03-13T01:52:21.460Z,17.04
2023-03-13T01:53:21.654Z,17.07
2023-03-13T01:54:21.853Z,17.07
2023-03-13T01:55:21.778Z,17.04
2023-03-13T01:56:21.995Z,17.03
2023-03-13T01:57:21.500Z,17.06
2023-03-13T01:58:21.840Z,17.03
2023-03-13T01:59:21.099Z,16.96
2023-03-13T02:00:22.521Z,17.04
2023-03-13T02:01:22.146Z,16.98
2023-03-13T02:02:21.603Z,16.94
2023-03-13T02:03:21.781Z,16.95
2023-03-13T02:04:21.451Z,17.04
2023-03-13T02:05:21.760Z,17.00
2023-03-13T02:06:21.667Z,17.01
2023-03-13T02:07:21.633Z,17.04
2023-03-13T02:08:21.612Z,17.07
2023-03-13T02:09:21.692Z,16.96
2023-03-13T02:10:21.829Z,17.02
2023-03-13T02:11:22.043Z,16.98
2023-03-13T02:12:21.358Z,17.03
2023-03-13T02:13:21.524Z,17.02
2023-03-13T02:14:22.436Z,17.04
2023-03-13T02:15:22.202Z,17.06
2023-03-13T02:16:21.277Z,17.15
2023-03-13T02:17:21.854Z,17.36
2023-03-13T02:18:22.074Z,17.26
2023-03-13T02:19:21.357Z,17.21
2023-03-13T02:20:21.706Z,17.18
2023-03-13T02:21:21.393Z,17.16
2023-03-13T02:22:21.739Z,17.14
2023-03-13T02:23:21.654Z,17.07
2023-03-13T02:24:21.262Z,16.98
2023-03-13T02:25:21.691Z,17
2023-03-13T02:26:22.229Z,16.99
2023-03-13T02:27:21.994Z,16.98
2023-03-13T02:28:21.185Z,17.00
2023-03-13T02:29:21.215Z,17.03
2023-03-13T02:30:21.549Z,17.01
2023-03-13T02:31:21.801Z,16.94
2023-03-13T02:32:22.177Z,16.98
2023-03-13T02:33:21.184Z,16.95
2023-03-13T02:34:21.536Z,16.91
2023-03-13T02:35:22.593Z,16.86
2023-03-13T02:36:21.618Z,16.89
2023-03-13T02:37:21.838Z,16.82
2023-03-13T02:38:21.725Z,16.89
2023-03-13T02:39:22.052Z,16.88
2023-03-13T02:40:21.932Z,16.83
2023-03-13T02:41:21.545Z,16.83
2023-03-13T02:42:21.813Z,16.85
2023-03-13T02:43:21.660Z,16.80
2023-03-13T02:44:21.382Z,16.82
2023-03-13T02:45:21.707Z,16.91
2023-03-13T02:46:21.875Z,16.90
2023-03-13T02:47:21.409Z,16.89
2023-03-13T02:48:21.451Z,16.84
2023-03-13T02:49:21.599Z,16.83
2023-03-13T02:50:21.801Z,16.82
2023-03-13T02:51:21.713Z,16.66
2023-03-13T02:52:22.085Z,16.75
2023-03-13T02:53:21.548Z,16.73
2023-03-13T02:54:22.355Z,16.81
2023-03-13T02:55:21.797Z,16.82
2023-03-13T02:56:21.108Z,16.82
2023-03-13T02:57:21.723Z,16.83
2023-03-13T02:58:21.890Z,16.84
2023-03-13T02:59:21.313Z,16.89
2023-03-13T03:01:23.383Z,16.91
2023-03-13T03:02:21.537Z,16.84
2023-03-13T03:03:21.962Z,16.86
2023-03-13T03:04:21.664Z,16.94
2023-03-13T03:05:22.171Z,16.91
2023-03-13T03:06:21.927Z,16.87
2023-03-13T03:07:21.370Z,16.88
2023-03-13T03:08:21.647Z,16.95
2023-03-13T03:09:22.072Z,16.98
2023-03-13T03:10:21.397Z,17
2023-03-13T03:11:21.705Z,17.06
2023-03-13T03:12:21.503Z,17.02
2023-03-13T03:13:21.573Z,17.00
2023-03-13T03:14:21.438Z,16.98
2023-03-13T03:15:22.324Z,17.03
2023-03-13T03:16:21.590Z,17.05
2023-03-13T03:17:22.050Z,17.02
2023-03-13T03:18:21.363Z,17
2023-03-13T03:19:21.889Z,17.06
2023-03-13T03:20:22.086Z,17.15
2023-03-13T03:21:21.284Z,17.25
2023-03-13T03:22:21.534Z,17.24
2023-03-13T03:23:21.410Z,17.20
2023-03-13T03:24:21.494Z,17.14
2023-03-13T03:25:22.112Z,17.15
2023-03-13T03:26:21.589Z,17.23
2023-03-13T03:27:22.092Z,17.26
2023-03-13T03:28:21.467Z,17.25
2023-03-13T03:29:21.871Z,17.25
2023-03-13T03:30:21.636Z,17.26
2023-03-13T03:31:21.841Z,17.28
2023-03-13T03:32:21.660Z,17.30
2023-03-13T03:33:21.500Z,17.29
2023-03-13T03:34:22.317Z,17.24
2023-03-13T03:35:21.217Z,17.23
2023-03-13T03:36:21.411Z,17.18
2023-03-13T03:37:21.514Z,17.28
2023-03-13T03:38:21.343Z,17.35
2023-03-13T03:39:21.650Z,17.38
2023-03-13T03:40:22.286Z,17.39
2023-03-13T03:41:21.696Z,17.42
2023-03-13T03:42:21.665Z,17.38
2023-03-13T03:43:21.599Z,17.45
2023-03-13T03:44:21.269Z,17.49
2023-03-13T03:45:22.188Z,17.45
2023-03-13T03:46:21.820Z,17.47
2023-03-13T03:47:21.536Z,17.45
2023-03-13T03:48:21.496Z,17.39
2023-03-13T03:49:21.396Z,17.42
2023-03-13T03:50:21.550Z,17.43
2023-03-13T03:51:21.433Z,17.41
2023-03-13T03:52:21.712Z,17.35
2023-03-13T03:53:21.669Z,17.40
2023-03-13T03:54:22.198Z,17.45
2023-03-13T03:55:20.971Z,17.47
2023-03-13T03:56:21.152Z,17.44
2023-03-13T03:57:21.418Z,17.42
2023-03-13T03:58:21.817Z,17.40
2023-03-13T03:59:21.288Z,17.43
2023-03-13T04:00:22.262Z,17.21
2023-03-13T04:01:21.710Z,17.14
2023-03-13T04:02:21.357Z,17.29
2023-03-13T04:03:22.091Z,17.30
2023-03-13T04:04:21.944Z,17.33
2023-03-13T04:05:27.011Z,17.39
2023-03-13T04:06:21.635Z,17.40
2023-03-13T04:07:21.376Z,17.42
2023-03-13T04:08:21.631Z,17.46
2023-03-13T04:09:22.030Z,17.48
2023-03-13T04:10:21.956Z,17.51
2023-03-13T04:11:21.472Z,17.52
2023-03-13T04:12:22.252Z,17.53
2023-03-13T04:13:21.883Z,17.54
2023-03-13T04:14:21.136Z,17.50
2023-03-13T04:15:22.533Z,17.54
2023-03-13T04:16:21.743Z,17.54
2023-03-13T04:17:29.357Z,17.54
2023-03-13T04:18:21.527Z,17.60
2023-03-13T04:19:21.676Z,17.58
2023-03-13T04:20:21.449Z,17.51
2023-03-13T04:21:21.479Z,17.54
2023-03-13T04:22:21.703Z,17.53
2023-03-13T04:23:21.816Z,17.62
2023-03-13T04:24:21.655Z,17.58
2023-03-13T04:25:21.949Z,17.60
2023-03-13T04:26:21.253Z,17.63
2023-03-13T04:27:21.465Z,17.65
2023-03-13T04:28:21.817Z,17.67
2023-03-13T04:29:22.257Z,17.72
2023-03-13T04:30:22.303Z,17.66
2023-03-13T04:31:21.770Z,17.67
2023-03-13T04:32:21.772Z,17.68
2023-03-13T04:33:21.741Z,17.61
2023-03-13T04:34:22.175Z,17.57
2023-03-13T04:35:21.753Z,17.65
2023-03-13T04:36:22.201Z,17.70
2023-03-13T04:37:21.426Z,17.71
2023-03-13T04:38:21.388Z,17.76
2023-03-13T04:39:21.660Z,17.74
2023-03-13T04:40:21.945Z,17.76
2023-03-13T04:41:21.626Z,17.79
2023-03-13T04:42:21.384Z,17.83
2023-03-13T04:43:21.420Z,17.79
2023-03-13T04:44:21.375Z,17.80
2023-03-13T04:45:21.940Z,17.78
2023-03-13T04:46:21.808Z,17.75
2023-03-13T04:47:21.302Z,17.77
2023-03-13T04:48:21.318Z,17.76
2023-03-13T04:49:21.505Z,17.61
2023-03-13T04:50:22.485Z,17.76
2023-03-13T04:51:21.444Z,17.78
2023-03-13T04:52:21.215Z,17.89
2023-03-13T04:53:21.614Z,17.86
2023-03-13T04:54:21.314Z,17.85
2023-03-13T04:55:21.751Z,17.90
2023-03-13T04:56:32.506Z,17.83
2023-03-13T04:57:21.404Z,17.80
2023-03-13T04:58:21.704Z,17.83
2023-03-13T04:59:21.919Z,17.75
2023-03-13T05:00:22.268Z,17.88
2023-03-13T05:01:22.011Z,17.82
2023-03-13T05:02:21.722Z,17.76
2023-03-13T05:03:21.795Z,17.84
2023-03-13T05:04:21.344Z,17.86
2023-03-13T05:05:22.099Z,17.87
2023-03-13T05:06:21.615Z,17.71
2023-03-13T05:07:21.829Z,17.83
2023-03-13T05:08:21.735Z,17.88
2023-03-13T05:10:22.365Z,17.89
2023-03-13T05:11:21.931Z,17.85
2023-03-13T05:12:21.637Z,17.94
2023-03-13T05:14:22.000Z,18
2023-03-13T05:15:22.068Z,17.85
2023-03-13T05:16:22.021Z,17.80
2023-03-13T05:17:22.208Z,17.91
2023-03-13T05:18:21.730Z,17.91
2023-03-13T05:19:21.607Z,17.88
2023-03-13T05:20:22.069Z,17.95
2023-03-13T05:21:21.385Z,18.00
2023-03-13T05:22:21.813Z,18.06
2023-03-13T05:23:21.922Z,18.08
2023-03-13T05:24:21.770Z,17.92
2023-03-13T05:25:22.572Z,17.96
2023-03-13T05:26:21.860Z,18.06
2023-03-13T05:27:22.233Z,18.16
2023-03-13T05:28:21.718Z,18.21
2023-03-13T05:29:22.198Z,18.22
2023-03-13T05:30:22.063Z,18.34
2023-03-13T05:31:22.521Z,18.30
2023-03-13T05:32:22.298Z,18.26
2023-03-13T05:33:21.633Z,18.29
2023-03-13T05:34:22.111Z,18.30
2023-03-13T05:35:22.218Z,18.32
2023-03-13T05:36:22.041Z,18.35
2023-03-13T05:37:21.891Z,18.37
2023-03-13T05:38:21.717Z,18.40
2023-03-13T05:39:21.619Z,18.48
2023-03-13T05:40:22.148Z,18.50
2023-03-13T05:41:21.732Z,18.5
2023-03-13T05:42:21.312Z,18.46
2023-03-13T05:43:21.546Z,18.42
2023-03-13T05:44:21.872Z,18.39
2023-03-13T05:45:22.522Z,18.40
2023-03-13T05:46:21.964Z,18.35
2023-03-13T05:47:21.638Z,18.36
2023-03-13T05:48:21.984Z,18.46
2023-03-13T05:49:21.502Z,18.47
2023-03-13T05:50:22.142Z,18.47
2023-03-13T05:51:21.944Z,18.45
2023-03-13T05:52:21.809Z,18.49
2023-03-13T05:53:21.340Z,18.56
2023-03-13T05:54:21.664Z,18.56
2023-03-13T05:55:22.063Z,18.5
2023-03-13T05:56:22.100Z,18.45
2023-03-13T05:57:21.975Z,18.48
2023-03-13T05:58:21.605Z,18.51
2023-03-13T05:59:22.194Z,18.52
2023-03-13T06:00:23.217Z,18.54
2023-03-13T06:01:22.220Z,18.57
2023-03-13T06:02:21.912Z,18.60
2023-03-13T06:03:21.814Z,18.64
2023-03-13T06:04:22.055Z,18.65
2023-03-13T06:05:22.224Z,18.67
2023-03-13T06:06:21.751Z,18.65
2023-03-13T06:07:22.197Z,18.59
2023-03-13T06:08:21.873Z,18.56
2023-03-13T06:09:21.918Z,18.64
2023-03-13T06:10:22.300Z,18.67
2023-03-13T06:11:22.393Z,18.69
2023-03-13T06:12:23.194Z,18.76
2023-03-13T06:13:21.852Z,18.84
2023-03-13T06:14:21.683Z,18.78
2023-03-13T06:15:22.750Z,18.81
2023-03-13T06:16:22.373Z,18.84
2023-03-13T06:17:22.345Z,18.79
2023-03-13T06:18:22.141Z,18.82
2023-03-13T06:19:21.999Z,18.87
2023-03-13T06:20:22.300Z,18.90
2023-03-13T06:21:22.083Z,18.87
2023-03-13T06:22:21.978Z,18.87
2023-03-13T06:23:22.123Z,18.90
2023-03-13T06:24:22.003Z,18.89
2023-03-13T06:25:21.739Z,18.95
2023-03-13T06:26:21.608Z,19.00
2023-03-13T06:27:22.503Z,18.92
2023-03-13T06:28:22.478Z,18.94
2023-03-13T06:29:22.288Z,18.98
2023-03-13T06:30:22.164Z,18.98
2023-03-13T06:31:22.034Z,19.01
2023-03-13T06:32:22.476Z,19.02
2023-03-13T06:33:22.045Z,19.00
2023-03-13T06:34:22.233Z,19.05
2023-03-13T06:35:22.362Z,19.04
2023-03-13T06:36:26.713Z,19.06
2023-03-13T06:37:22.055Z,19.03
2023-03-13T06:38:21.824Z,19.11
2023-03-13T06:39:22.088Z,19.14
2023-03-13T06:40:22.089Z,19.21
2023-03-13T06:41:21.749Z,19.23
2023-03-13T06:42:21.264Z,19.13
2023-03-13T06:43:21.957Z,19.12
2023-03-13T06:44:28.345Z,19.10
2023-03-13T06:45:22.838Z,19.15
2023-03-13T06:46:29.865Z,19.19
2023-03-13T06:47:21.717Z,19.28
2023-03-13T06:48:21.782Z,19.28
2023-03-13T06:49:22.219Z,19.25
2023-03-13T06:50:22.500Z,19.25
2023-03-13T06:51:22.165Z,19.31
2023-03-13T06:52:26.497Z,19.36
2023-03-13T06:53:22.461Z,19.32
2023-03-13T06:54:22.335Z,19.19
2023-03-13T06:55:22.098Z,19.18
2023-03-13T06:56:22.255Z,19.25
2023-03-13T06:57:22.347Z,19.28
2023-03-13T06:58:32.125Z,19.29
2023-03-13T06:59:21.873Z,19.32
2023-03-13T07:00:36.874Z,19.39
2023-03-13T07:01:22.707Z,19.27
2023-03-13T07:02:23.014Z,19.22
2023-03-13T07:03:22.982Z,19.32
2023-03-13T07:04:23.177Z,19.44
2023-03-13T07:05:22.642Z,19.38
2023-03-13T07:06:24.306Z,19.29
2023-03-13T07:07:31.202Z,19.30
2023-03-13T07:08:22.904Z,19.40
2023-03-13T07:09:22.110Z,19.25
2023-03-13T07:10:24.060Z,19.32
2023-03-13T07:11:28.472Z,19.42
2023-03-13T07:12:22.313Z,19.46
2023-03-13T07:13:21.921Z,19.45
2023-03-13T07:14:21.903Z,19.51
2023-03-13T07:15:22.947Z,19.54
2023-03-13T07:16:21.908Z,19.53
2023-03-13T07:17:22.131Z,19.56
2023-03-13T07:18:22.167Z,19.63
2023-03-13T07:19:22.315Z,19.54
2023-03-13T07:20:22.534Z,19.56
2023-03-13T07:21:21.837Z,19.62
2023-03-13T07:22:22.142Z,19.57
2023-03-13T07:23:22.338Z,19.57
2023-03-13T07:24:22.750Z,19.59
2023-03-13T07:25:22.234Z,19.61
2023-03-13T07:26:22.582Z,19.63
2023-03-13T07:27:21.855Z,19.66
2023-03-13T07:28:22.069Z,19.62
2023-03-13T07:29:21.782Z,19.65
2023-03-13T07:30:22.410Z,19.48
2023-03-13T07:31:22.072Z,19.58
2023-03-13T07:32:22.432Z,19.63
2023-03-13T07:33:22.797Z,19.60
2023-03-13T07:34:22.098Z,19.62
2023-03-13T07:35:22.225Z,19.64
2023-03-13T07:36:22.449Z,19.70
2023-03-13T07:37:22.284Z,19.79
2023-03-13T07:38:22.577Z,20
2023-03-13T07:39:22.175Z,19.79
2023-03-13T07:40:22.808Z,19.87
2023-03-13T07:41:22.319Z,19.85
2023-03-13T07:42:22.686Z,19.86
2023-03-13T07:43:22.101Z,19.78
2023-03-13T07:44:22.479Z,19.81
2023-03-13T07:45:22.731Z,19.95
2023-03-13T07:46:22.282Z,19.98
2023-03-13T07:47:21.928Z,20.03
2023-03-13T07:48:22.268Z,20.09
2023-03-13T07:49:22.536Z,19.97
2023-03-13T07:50:21.955Z,20.09
2023-03-13T07:51:33.438Z,20.21
2023-03-13T07:52:22.266Z,20.25
2023-03-13T07:53:23.613Z,20.27
2023-03-13T07:54:22.599Z,20.28
2023-03-13T07:55:22.290Z,20.18
2023-03-13T07:56:22.129Z,20.31
2023-03-13T07:57:22.449Z,20.38
2023-03-13T07:58:22.450Z,20.42
2023-03-13T07:59:22.091Z,20.49
2023-03-13T08:00:23.098Z,20.48
2023-03-13T08:01:24.443Z,20.5
2023-03-13T08:02:21.819Z,20.55
2023-03-13T08:03:22.704Z,20.56
2023-03-13T08:04:22.067Z,20.63
2023-03-13T08:05:22.082Z,20.62
2023-03-13T08:06:22.720Z,20.63
2023-03-13T08:07:22.142Z,20.60
2023-03-13T08:08:22.403Z,20.65
2023-03-13T08:09:22.326Z,20.68
2023-03-13T08:10:23.194Z,20.61
2023-03-13T08:11:22.023Z,20.59
2023-03-13T08:12:22.334Z,20.39
2023-03-13T08:13:22.779Z,20.40
2023-03-13T08:14:22.266Z,20.48
2023-03-13T08:15:23.052Z,20.57
2023-03-13T08:16:22.414Z,20.54
2023-03-13T08:17:22.017Z,20.54
2023-03-13T08:18:22.501Z,20.52
2023-03-13T08:19:22.414Z,20.57
2023-03-13T08:20:22.894Z,20.54
2023-03-13T08:21:23.112Z,20.48
2023-03-13T08:22:22.548Z,20.50
2023-03-13T08:23:22.378Z,20.55
2023-03-13T08:24:22.694Z,20.57
2023-03-13T08:25:22.627Z,20.57
2023-03-13T08:26:22.384Z,20.44
2023-03-13T08:27:22.106Z,20.48
2023-03-13T08:28:22.886Z,20.52
2023-03-13T08:29:22.390Z,20.54
2023-03-13T08:30:22.196Z,20.46
2023-03-13T08:31:22.979Z,20.53
2023-03-13T08:32:22.467Z,20.58
2023-03-13T08:33:22.108Z,20.54
2023-03-13T08:34:22.319Z,20.59
2023-03-13T08:35:23.015Z,20.44
2023-03-13T08:36:23.203Z,20.44
2023-03-13T08:37:21.865Z,20.46
2023-03-13T08:38:21.932Z,20.36
2023-03-13T08:39:22.262Z,20.37
2023-03-13T08:40:22.000Z,20.27
2023-03-13T08:41:22.525Z,20.33
2023-03-13T08:43:24.150Z,20.44
2023-03-13T08:45:23.684Z,20.50
2023-03-13T08:46:21.553Z,20.55
2023-03-13T08:47:21.650Z,20.64
2023-03-13T08:48:21.783Z,20.68
2023-03-13T08:49:21.754Z,20.71
2023-03-13T08:50:22.583Z,20.72
2023-03-13T08:51:22.352Z,20.68
2023-03-13T08:52:21.699Z,20.66
2023-03-13T08:53:21.915Z,20.70
2023-03-13T08:54:22.281Z,20.76
2023-03-13T08:55:22.563Z,20.74
2023-03-13T08:56:22.020Z,20.67
2023-03-13T08:57:22.321Z,20.66
2023-03-13T08:58:21.835Z,20.69
2023-03-13T08:59:22.650Z,20.76
2023-03-13T09:00:23.040Z,20.76
2023-03-13T09:01:27.557Z,20.77
2023-03-13T09:02:22.285Z,20.79
2023-03-13T09:03:22.560Z,20.83
2023-03-13T09:04:21.999Z,20.80
2023-03-13T09:05:22.499Z,20.87
2023-03-13T09:06:22.399Z,20.96
2023-03-13T09:07:27.204Z,21.04
2023-03-13T09:08:22.395Z,21.09
2023-03-13T09:09:23.236Z,21.18
2023-03-13T09:10:22.051Z,21.21
2023-03-13T09:11:22.008Z,21.26
2023-03-13T09:12:30.690Z,21.26
2023-03-13T09:13:22.188Z,21.21
2023-03-13T09:14:22.468Z,21.25
2023-03-13T09:15:21.985Z,21.33
2023-03-13T09:16:22.619Z,21.33
2023-03-13T09:17:22.376Z,21.31
2023-03-13T09:18:21.964Z,21.33
2023-03-13T09:19:22.439Z,21.34
2023-03-13T09:20:21.760Z,21.39
2023-03-13T09:21:22.316Z,21.42
2023-03-13T09:22:22.054Z,21.37
2023-03-13T09:23:22.226Z,21.37
2023-03-13T09:24:22.365Z,21.33
2023-03-13T09:25:22.630Z,21.35
2023-03-13T09:26:23.444Z,21.36
2023-03-13T09:27:35.826Z,21.32
2023-03-13T09:28:22.167Z,21.34
2023-03-13T09:29:22.226Z,21.22
2023-03-13T09:30:22.830Z,21.26
2023-03-13T09:31:21.897Z,21.33
2023-03-13T09:32:22.342Z,21.37
2023-03-13T09:33:22.081Z,21.31
2023-03-13T09:34:22.471Z,21.38
2023-03-13T09:35:22.458Z,21.39
2023-03-13T09:36:23.068Z,21.37
2023-03-13T09:37:22.223Z,21.42
2023-03-13T09:38:22.184Z,21.47
2023-03-13T09:39:21.709Z,21.51
2023-03-13T09:40:22.717Z,21.52
2023-03-13T09:41:22.014Z,21.48
2023-03-13T09:42:22.296Z,21.50
2023-03-13T09:43:22.766Z,21.55
2023-03-13T09:44:22.049Z,21.52
2023-03-13T09:45:22.725Z,21.55
2023-03-13T09:46:22.662Z,21.63
2023-03-13T09:47:21.779Z,21.66
2023-03-13T09:48:21.940Z,21.68
2023-03-13T09:49:22.248Z,21.68
2023-03-13T09:50:22.810Z,21.68
2023-03-13T09:51:22.345Z,21.70
2023-03-13T09:52:22.067Z,21.73
2023-03-13T09:53:22.331Z,21.68
2023-03-13T09:54:21.868Z,21.73
2023-03-13T09:55:21.968Z,21.81
2023-03-13T09:56:22.257Z,21.87
2023-03-13T09:57:22.475Z,21.89
2023-03-13T09:58:22.019Z,21.80
2023-03-13T09:59:22.279Z,21.89
2023-03-13T10:00:23.146Z,21.98
2023-03-13T10:01:22.548Z,22.04
2023-03-13T10:02:22.379Z,22.18
2023-03-13T10:03:22.998Z,22.22
2023-03-13T10:04:22.707Z,22.26
2023-03-13T10:05:22.059Z,22.37
2023-03-13T10:06:22.352Z,22.42
2023-03-13T10:07:22.661Z,22.47
2023-03-13T10:08:22.251Z,22.5
2023-03-13T10:09:22.105Z,22.51
2023-03-13T10:10:22.473Z,22.50
2023-03-13T10:11:21.979Z,22.54
2023-03-13T10:12:22.776Z,22.60
2023-03-13T10:13:22.252Z,22.64
2023-03-13T10:14:22.654Z,22.58
2023-03-13T10:15:22.327Z,22.56
2023-03-13T10:16:22.294Z,22.52
2023-03-13T10:17:22.093Z,22.5
2023-03-13T10:18:22.577Z,22.47
2023-03-13T10:19:22.622Z,22.44
2023-03-13T10:20:23.421Z,22.36
2023-03-13T10:21:23.069Z,22.37
2023-03-13T10:22:22.387Z,22.39
2023-03-13T10:23:22.820Z,22.42
2023-03-13T10:24:22.952Z,22.43
2023-03-13T10:25:22.547Z,22.44
2023-03-13T10:26:22.779Z,22.5
2023-03-13T10:27:22.710Z,22.52
2023-03-13T10:28:22.118Z,22.47
2023-03-13T10:29:22.340Z,22.31
2023-03-13T10:30:22.434Z,22.45
2023-03-13T10:31:21.937Z,22.53
2023-03-13T10:32:23.100Z,22.56
2023-03-13T10:33:22.909Z,22.63
2023-03-13T10:34:22.902Z,22.65
2023-03-13T10:35:23.017Z,22.63
2023-03-13T10:36:23.297Z,22.70
2023-03-13T10:37:22.148Z,22.68
2023-03-13T10:38:25.299Z,22.69
2023-03-13T10:39:22.688Z,22.79
2023-03-13T10:40:22.209Z,22.87
2023-03-13T10:41:21.801Z,22.94
2023-03-13T10:42:22.418Z,22.93
2023-03-13T10:43:22.577Z,22.92
2023-03-13T10:44:21.250Z,22.91
2023-03-13T10:45:25.009Z,23.01
2023-03-13T10:46:22.264Z,23.06
2023-03-13T10:47:22.986Z,23.10
2023-03-13T10:48:21.986Z,23.15
2023-03-13T10:49:22.354Z,23.24
2023-03-13T10:50:22.058Z,23.29
2023-03-13T10:51:22.996Z,23.29
2023-03-13T10:52:22.076Z,23.29
2023-03-13T10:53:22.324Z,23.18
2023-03-13T10:54:22.168Z,23.21
2023-03-13T10:55:22.799Z,23.26
2023-03-13T10:56:22.654Z,23.34
2023-03-13T10:57:22.005Z,23.36
2023-03-13T10:58:22.038Z,23.42
2023-03-13T10:59:23.320Z,23.43
2023-03-13T11:00:23.854Z,23.39
2023-03-13T11:01:23.553Z,23.44
2023-03-13T11:02:23.422Z,23.52
2023-03-13T11:03:23.588Z,23.58
2023-03-13T11:04:23.406Z,23.57
2023-03-13T11:05:23.135Z,23.51
2023-03-13T11:06:22.510Z,23.55
2023-03-13T11:07:22.609Z,23.66
2023-03-13T11:08:22.571Z,23.79
2023-03-13T11:09:22.289Z,23.82
2023-03-13T11:10:22.723Z,23.88
2023-03-13T11:11:22.328Z,23.97
2023-03-13T11:12:21.630Z,24.03
2023-03-13T11:13:35.636Z,24.04
2023-03-13T11:14:22.337Z,24.03
2023-03-13T11:15:22.180Z,24.06
2023-03-13T11:16:23.045Z,24.10
2023-03-13T11:17:22.919Z,24.10
2023-03-13T11:18:22.704Z,24.12
2023-03-13T11:19:22.472Z,24.25
2023-03-13T11:20:22.755Z,24.23
2023-03-13T11:21:23.126Z,24.18
2023-03-13T11:22:22.744Z,24.19
2023-03-13T11:23:22.385Z,24.28
2023-03-13T11:24:22.427Z,24.28
2023-03-13T11:25:22.357Z,24.25
2023-03-13T11:26:22.346Z,24.12
2023-03-13T11:27:22.009Z,24.14
2023-03-13T11:28:22.479Z,24.15
2023-03-13T11:29:22.012Z,24.18
2023-03-13T11:30:28.160Z,24.18
2023-03-13T11:31:21.775Z,24.27
2023-03-13T11:32:22.821Z,24.26
2023-03-13T11:33:22.835Z,24.10
2023-03-13T11:34:21.987Z,24.11
2023-03-13T11:35:23.249Z,24.12
2023-03-13T11:36:22.755Z,24.11
2023-03-13T11:37:22.268Z,24.06
2023-03-13T11:38:30.102Z,24.09
2023-03-13T11:39:21.962Z,23.97
2023-03-13T11:40:22.915Z,24.03
2023-03-13T11:41:22.735Z,24.03
2023-03-13T11:42:22.743Z,24.02
2023-03-13T11:43:25.671Z,23.92
2023-03-13T11:44:21.874Z,23.92
2023-03-13T11:45:23.516Z,23.88
2023-03-13T11:46:23.135Z,23.89
2023-03-13T11:47:22.307Z,23.89
2023-03-13T11:48:22.016Z,23.92
2023-03-13T11:49:22.651Z,23.88
2023-03-13T11:50:36.627Z,23.89
2023-03-13T11:51:22.343Z,23.94
2023-03-13T11:52:22.367Z,24.01
2023-03-13T11:53:21.966Z,24.07
2023-03-13T11:54:22.486Z,24.17
2023-03-13T11:55:22.131Z,24.13
2023-03-13T11:56:21.737Z,24.05
2023-03-13T11:57:22.615Z,24.12
2023-03-13T11:58:22.095Z,24.15
2023-03-13T11:59:21.990Z,24.29
2023-03-13T12:00:24.338Z,24.32
2023-03-13T12:01:22.653Z,24.42
2023-03-13T12:02:23.221Z,24.45
2023-03-13T12:03:22.535Z,24.51
2023-03-13T12:04:22.040Z,24.41
2023-03-13T12:05:22.641Z,24.36
2023-03-13T12:06:28.268Z,24.43
2023-03-13T12:07:22.696Z,24.48
2023-03-13T12:08:22.115Z,24.5
2023-03-13T12:09:22.265Z,24.62
2023-03-13T12:10:23.039Z,24.66
2023-03-13T12:11:22.389Z,24.71
2023-03-13T12:12:22.010Z,24.78
2023-03-13T12:13:22.499Z,24.76
2023-03-13T12:14:21.954Z,24.71
2023-03-13T12:15:22.948Z,24.68
2023-03-13T12:16:22.154Z,24.77
2023-03-13T12:17:22.773Z,24.90
2023-03-13T12:18:22.605Z,25.01
2023-03-13T12:19:22.217Z,25.04
2023-03-13T12:20:22.104Z,25.04
2023-03-13T12:21:22.145Z,24.96
2023-03-13T12:22:22.353Z,24.98
2023-03-13T12:23:22.218Z,24.96
2023-03-13T12:24:22.445Z,24.88
2023-03-13T12:25:22.414Z,24.94
2023-03-13T12:26:22.385Z,24.90
2023-03-13T12:27:21.589Z,24.67
2023-03-13T12:28:23.898Z,24.76
2023-03-13T12:29:22.052Z,24.59
2023-03-13T12:30:22.701Z,24.70
2023-03-13T12:31:22.352Z,24.75
2023-03-13T12:32:21.511Z,24.76
2023-03-13T12:33:24.065Z,24.73
2023-03-13T12:34:21.577Z,24.80
2023-03-13T12:35:22.240Z,24.87
2023-03-13T12:36:22.429Z,24.82
2023-03-13T12:37:21.953Z,24.84
2023-03-13T12:38:22.320Z,24.75
2023-03-13T12:39:23.239Z,24.68
2023-03-13T12:40:22.553Z,24.71
2023-03-13T12:41:22.177Z,24.70
2023-03-13T12:42:22.285Z,24.75
2023-03-13T12:43:22.258Z,24.75
2023-03-13T12:44:21.777Z,24.80
2023-03-13T12:45:22.556Z,24.91
2023-03-13T12:46:22.172Z,24.89
2023-03-13T12:47:22.102Z,24.90
2023-03-13T12:48:22.745Z,24.93
2023-03-13T12:49:22.316Z,24.90
2023-03-13T12:50:22.060Z,24.93
2023-03-13T12:51:22.458Z,24.92
2023-03-13T12:52:22.433Z,24.86
2023-03-13T12:53:22.622Z,24.84
2023-03-13T12:54:22.208Z,24.71
2023-03-13T12:55:22.423Z,24.63
2023-03-13T12:56:22.074Z,24.43
2023-03-13T12:57:22.274Z,24.46
2023-03-13T12:58:22.541Z,24.61
2023-03-13T12:59:22.421Z,24.70
2023-03-13T13:00:23.763Z,24.61
2023-03-13T13:01:22.885Z,24.56